createdAt,value
2023-02-02T00:00:20.889Z,557.00
2023-02-02T00:01:20.880Z,558.00
2023-02-02T00:02:20.988Z,559.00
2023-02-02T00:03:20.864Z,558.00
2023-02-02T00:54:51.550Z,548.00
2023-02-02T00:55:52.475Z,544.00
2023-02-02T00:56:52.476Z,544.00
2023-02-02T00:57:52.456Z,543.00
2023-02-02T00:58:52.451Z,545.00
2023-02-02T00:59:52.443Z,544.00
2023-02-02T01:00:52.582Z,543.00
2023-02-02T01:01:52.492Z,549.00
2023-02-02T01:02:52.428Z,552.00
2023-02-02T01:03:52.402Z,554.00
2023-02-02T01:04:52.403Z,556.00
2023-02-02T01:05:52.394Z,554.00
2023-02-02T01:06:52.400Z,554.00
2023-02-02T01:07:52.375Z,551.00
2023-02-02T01:08:52.365Z,551.00
2023-02-02T01:09:52.389Z,549.00
2023-02-02T01:10:52.367Z,545.00
2023-02-02T01:11:52.337Z,542.00
2023-02-02T01:12:52.341Z,541.00
2023-02-02T01:13:52.325Z,541.00
2023-02-02T01:14:52.308Z,542.00
2023-02-02T01:15:52.307Z,541.00
2023-02-02T01:16:52.290Z,540.00
2023-02-02T01:17:52.284Z,542.00
2023-02-02T01:18:52.267Z,538.00
2023-02-02T01:19:52.262Z,536.00
2023-02-02T01:20:52.261Z,538.00
2023-02-02T01:21:52.663Z,542.00
2023-02-02T01:22:52.241Z,541.00
2023-02-02T01:23:52.231Z,542.00
2023-02-02T01:24:52.217Z,546.00
2023-02-02T01:25:52.210Z,543.00
2023-02-02T01:26:52.325Z,543.00
2023-02-02T01:27:52.189Z,543.00
2023-02-02T01:28:52.214Z,542.00
2023-02-02T01:29:52.180Z,541.00
2023-02-02T01:30:52.237Z,540.00
2023-02-02T01:31:52.267Z,540.00
2023-02-02T01:32:52.152Z,542.00
2023-02-02T01:33:52.138Z,544.00
2023-02-02T01:34:52.130Z,545.00
2023-02-02T01:35:52.118Z,543.00
2023-02-02T01:36:52.108Z,545.00
2023-02-02T01:37:52.105Z,545.00
2023-02-02T01:38:52.088Z,543.00
2023-02-02T01:39:52.088Z,542.00
2023-02-02T01:40:52.065Z,545.00
2023-02-02T01:41:52.074Z,545.00
2023-02-02T01:42:52.092Z,546.00
2023-02-02T01:43:52.045Z,547.00
2023-02-02T01:44:52.045Z,544.00
2023-02-02T01:45:52.080Z,540.00
2023-02-02T01:46:52.020Z,537.00
2023-02-02T01:47:52.007Z,537.00
2023-02-02T01:48:52.011Z,536.00
2023-02-02T01:49:51.995Z,536.00
2023-02-02T01:50:51.982Z,537.00
2023-02-02T01:51:51.982Z,534.00
2023-02-02T01:52:51.969Z,533.00
2023-02-02T01:53:51.953Z,531.00
2023-02-02T01:54:51.953Z,532.00
2023-02-02T01:55:51.936Z,532.00
2023-02-02T01:56:51.922Z,532.00
2023-02-02T01:57:51.912Z,532.00
2023-02-02T01:58:51.927Z,533.00
2023-02-02T01:59:51.911Z,535.00
2023-02-02T02:00:51.891Z,534.00
2023-02-02T02:01:51.882Z,534.00
2023-02-02T02:02:51.869Z,530.00
2023-02-02T02:03:51.858Z,531.00
2023-02-02T02:04:51.856Z,533.00
2023-02-02T02:05:51.940Z,532.00
2023-02-02T02:06:51.842Z,530.00
2023-02-02T02:07:51.829Z,531.00
2023-02-02T02:08:51.813Z,527.00
2023-02-02T02:09:51.808Z,531.00
2023-02-02T02:10:51.796Z,532.00
2023-02-02T02:11:51.788Z,532.00
2023-02-02T02:12:51.776Z,533.00
2023-02-02T02:13:51.767Z,534.00
2023-02-02T02:14:51.793Z,532.00
2023-02-02T02:15:51.747Z,531.00
2023-02-02T02:16:51.819Z,531.00
2023-02-02T02:17:51.732Z,526.00
2023-02-02T02:18:51.734Z,527.00
2023-02-02T02:19:51.715Z,526.00
2023-02-02T02:20:51.710Z,525.00
2023-02-02T02:21:51.695Z,525.00
2023-02-02T02:22:51.679Z,526.00
2023-02-02T02:23:51.670Z,525.00
2023-02-02T02:24:51.694Z,527.00
2023-02-02T02:25:51.654Z,528.00
2023-02-02T02:26:51.685Z,530.00
2023-02-02T02:27:51.639Z,531.00
2023-02-02T02:28:51.634Z,532.00
2023-02-02T02:29:51.614Z,531.00
2023-02-02T02:30:51.699Z,528.00
2023-02-02T02:31:51.706Z,529.00
2023-02-02T02:32:51.599Z,530.00
2023-02-02T02:33:51.578Z,533.00
2023-02-02T02:34:51.570Z,535.00
2023-02-02T02:35:51.567Z,536.00
2023-02-02T02:36:51.556Z,535.00
2023-02-02T02:37:51.547Z,535.00
2023-02-02T02:38:51.533Z,531.00
2023-02-02T02:39:51.526Z,533.00
2023-02-02T02:40:51.511Z,530.00
2023-02-02T02:41:51.503Z,530.00
2023-02-02T02:42:51.493Z,530.00
2023-02-02T02:43:51.492Z,530.00
2023-02-02T02:44:51.470Z,528.00
2023-02-02T02:45:51.521Z,525.00
2023-02-02T02:46:51.480Z,525.00
2023-02-02T02:47:51.451Z,523.00
2023-02-02T02:48:51.443Z,521.00
2023-02-02T02:49:51.440Z,520.00
2023-02-02T02:50:51.433Z,520.00
2023-02-02T02:51:51.411Z,518.00
2023-02-02T02:52:51.409Z,519.00
2023-02-02T02:53:51.402Z,522.00
2023-02-02T02:54:51.396Z,523.00
2023-02-02T02:55:51.382Z,523.00
2023-02-02T02:56:51.376Z,524.00
2023-02-02T02:57:52.154Z,527.00
2023-02-02T02:58:51.348Z,525.00
2023-02-02T02:59:51.337Z,522.00
2023-02-02T03:00:51.336Z,518.00
2023-02-02T03:01:51.364Z,517.00
2023-02-02T03:02:51.387Z,519.00
2023-02-02T03:03:51.309Z,518.00
2023-02-02T03:04:51.297Z,517.00
2023-02-02T03:05:51.295Z,519.00
2023-02-02T03:06:51.290Z,520.00
2023-02-02T03:07:51.271Z,518.00
2023-02-02T03:08:51.257Z,517.00
2023-02-02T03:09:51.247Z,519.00
2023-02-02T03:10:51.259Z,520.00
2023-02-02T03:11:51.237Z,517.00
2023-02-02T03:12:51.233Z,517.00
2023-02-02T03:13:51.209Z,518.00
2023-02-02T03:14:51.199Z,517.00
2023-02-02T03:15:51.237Z,518.00
2023-02-02T03:16:51.186Z,519.00
2023-02-02T03:17:51.173Z,521.00
2023-02-02T03:18:51.205Z,521.00
2023-02-02T03:19:51.159Z,519.00
2023-02-02T03:20:51.153Z,518.00
2023-02-02T03:21:51.140Z,519.00
2023-02-02T03:22:51.132Z,516.00
2023-02-02T03:23:51.117Z,517.00
2023-02-02T03:24:51.110Z,515.00
2023-02-02T03:25:51.106Z,513.00
2023-02-02T03:26:51.188Z,514.00
2023-02-02T03:27:51.092Z,514.00
2023-02-02T03:28:51.092Z,512.00
2023-02-02T03:29:51.061Z,513.00
2023-02-02T03:30:51.164Z,514.00
2023-02-02T03:31:51.057Z,512.00
2023-02-02T03:32:51.036Z,508.00
2023-02-02T03:33:51.034Z,508.00
2023-02-02T03:34:51.046Z,510.00
2023-02-02T03:35:51.005Z,509.00
2023-02-02T03:36:51.005Z,509.00
2023-02-02T03:37:50.987Z,507.00
2023-02-02T03:38:50.987Z,508.00
2023-02-02T03:39:51.689Z,508.00
2023-02-02T03:40:51.195Z,510.00
2023-02-02T03:41:51.164Z,513.00
2023-02-02T03:42:51.167Z,515.00
2023-02-02T03:43:51.147Z,515.00
2023-02-02T03:44:51.144Z,512.00
2023-02-02T03:45:51.125Z,511.00
2023-02-02T03:46:51.470Z,510.00
2023-02-02T03:47:51.109Z,508.00
2023-02-02T03:48:51.097Z,509.00
2023-02-02T03:49:51.096Z,510.00
2023-02-02T03:50:52.067Z,509.00
2023-02-02T03:51:51.069Z,508.00
2023-02-02T03:52:51.061Z,509.00
2023-02-02T03:53:51.053Z,507.00
2023-02-02T03:54:51.045Z,506.00
2023-02-02T03:55:51.039Z,505.00
2023-02-02T03:56:51.039Z,506.00
2023-02-02T03:57:51.968Z,508.00
2023-02-02T03:58:51.005Z,507.00
2023-02-02T03:59:51.000Z,505.00
2023-02-02T04:00:50.995Z,505.00
2023-02-02T04:01:51.571Z,506.00
2023-02-02T04:02:51.028Z,507.00
2023-02-02T04:03:50.969Z,509.00
2023-02-02T04:04:50.956Z,510.00
2023-02-02T04:05:50.949Z,513.00
2023-02-02T04:06:50.962Z,513.00
2023-02-02T04:07:50.927Z,508.00
2023-02-02T04:08:50.916Z,507.00
2023-02-02T04:09:50.904Z,506.00
2023-02-02T04:10:50.903Z,506.00
2023-02-02T04:11:50.903Z,507.00
2023-02-02T04:12:50.877Z,507.00
2023-02-02T04:13:50.871Z,506.00
2023-02-02T04:14:50.858Z,506.00
2023-02-02T04:15:50.857Z,505.00
2023-02-02T04:16:50.848Z,504.00
2023-02-02T04:17:50.839Z,504.00
2023-02-02T04:18:50.827Z,506.00
2023-02-02T04:19:50.812Z,507.00
2023-02-02T04:20:50.804Z,508.00
2023-02-02T04:21:50.794Z,507.00
2023-02-02T04:22:50.819Z,502.00
2023-02-02T04:23:50.783Z,502.00
2023-02-02T04:24:50.776Z,502.00
2023-02-02T04:25:50.751Z,500.00
2023-02-02T04:26:50.867Z,503.00
2023-02-02T04:27:50.934Z,503.00
2023-02-02T04:28:50.734Z,500.00
2023-02-02T04:29:50.743Z,499.00
2023-02-02T04:30:50.769Z,498.00
2023-02-02T04:31:50.786Z,501.00
2023-02-02T04:32:50.717Z,500.00
2023-02-02T04:40:50.625Z,501.00
2023-02-02T04:51:50.529Z,497.00
2023-02-02T04:54:50.514Z,493.00
2023-02-02T05:03:50.404Z,490.00
2023-02-02T05:04:50.461Z,492.00
2023-02-02T05:05:50.389Z,494.00
2023-02-02T05:06:50.381Z,494.00
2023-02-02T05:09:50.355Z,495.00
2023-02-02T05:10:50.403Z,490.00
2023-02-02T05:11:50.333Z,489.00
2023-02-02T05:12:50.332Z,489.00
2023-02-02T05:13:50.320Z,489.00
2023-02-02T05:14:50.306Z,490.00
2023-02-02T05:15:50.297Z,491.00
2023-02-02T05:17:50.292Z,490.00
2023-02-02T05:18:50.485Z,490.00
2023-02-02T05:19:50.265Z,486.00
2023-02-02T05:20:50.249Z,487.00
2023-02-02T05:21:51.280Z,486.00
2023-02-02T05:22:50.232Z,487.00
2023-02-02T05:23:50.231Z,487.00
2023-02-02T05:24:50.214Z,487.00
2023-02-02T05:25:50.202Z,489.00
2023-02-02T05:26:50.276Z,489.00
2023-02-02T05:27:50.191Z,492.00
2023-02-02T05:29:50.166Z,489.00
2023-02-02T05:30:50.193Z,489.00
2023-02-02T05:31:50.209Z,492.00
2023-02-02T05:33:50.145Z,490.00
2023-02-02T05:34:50.129Z,492.00
2023-02-02T05:35:50.116Z,495.00
2023-02-02T05:36:50.110Z,496.00
2023-02-02T05:37:50.094Z,493.00
2023-02-02T05:38:50.088Z,493.00
2023-02-02T05:39:50.078Z,489.00
2023-02-02T05:40:50.079Z,488.00
2023-02-02T05:41:50.052Z,488.00
2023-02-02T05:42:50.080Z,488.00
2023-02-02T05:43:50.040Z,487.00
2023-02-02T05:44:50.034Z,488.00
2023-02-02T05:45:50.113Z,490.00
2023-02-02T05:46:50.014Z,489.00
2023-02-02T05:47:50.005Z,489.00
2023-02-02T05:48:50.011Z,490.00
2023-02-02T05:49:49.979Z,489.00
2023-02-02T05:50:49.976Z,491.00
2023-02-02T05:51:49.964Z,491.00
2023-02-02T05:52:49.965Z,490.00
2023-02-02T05:53:49.960Z,490.00
2023-02-02T05:54:49.940Z,490.00
2023-02-02T05:55:49.943Z,489.00
2023-02-02T05:56:49.936Z,489.00
2023-02-02T05:57:49.933Z,488.00
2023-02-02T05:58:50.019Z,490.00
2023-02-02T05:59:49.898Z,490.00
2023-02-02T06:00:49.903Z,489.00
2023-02-02T06:01:49.952Z,488.00
2023-02-02T06:02:49.934Z,485.00
2023-02-02T06:03:50.082Z,483.00
2023-02-02T06:04:49.873Z,483.00
2023-02-02T06:05:50.586Z,484.00
2023-02-02T06:06:49.844Z,484.00
2023-02-02T06:07:49.860Z,489.00
2023-02-02T06:08:49.847Z,491.00
2023-02-02T06:09:49.809Z,493.00
2023-02-02T06:10:49.795Z,491.00
2023-02-02T06:11:49.779Z,489.00
2023-02-02T06:12:49.799Z,487.00
2023-02-02T06:13:49.760Z,488.00
2023-02-02T06:14:49.774Z,490.00
2023-02-02T06:15:49.818Z,492.00
2023-02-02T06:16:49.732Z,494.00
2023-02-02T06:17:49.729Z,491.00
2023-02-02T06:18:49.719Z,490.00
2023-02-02T06:19:50.481Z,491.00
2023-02-02T06:20:49.692Z,492.00
2023-02-02T06:21:49.694Z,490.00
2023-02-02T06:23:49.694Z,490.00
2023-02-02T06:24:49.664Z,492.00
2023-02-02T06:25:49.683Z,498.00
2023-02-02T06:26:49.695Z,505.00
2023-02-02T06:27:49.654Z,511.00
2023-02-02T06:28:49.638Z,525.00
2023-02-02T06:29:49.642Z,538.00
2023-02-02T06:30:50.095Z,543.00
2023-02-02T06:31:49.729Z,548.00
2023-02-02T06:33:49.580Z,559.00
2023-02-02T06:34:49.583Z,567.00
2023-02-02T06:35:49.559Z,590.00
2023-02-02T06:36:49.545Z,586.00
2023-02-02T06:37:49.534Z,582.00
2023-02-02T06:38:49.536Z,586.00
2023-02-02T06:39:49.585Z,589.00
2023-02-02T06:41:49.567Z,599.00
2023-02-02T06:42:49.552Z,608.00
2023-02-02T06:43:49.584Z,616.00
2023-02-02T06:44:49.524Z,623.00
2023-02-02T06:45:49.528Z,627.00
2023-02-02T06:46:49.548Z,636.00
2023-02-02T06:47:49.505Z,653.00
2023-02-02T06:48:49.530Z,660.00
2023-02-02T06:49:49.568Z,668.00
2023-02-02T06:50:49.474Z,675.00
2023-02-02T06:54:49.557Z,710.00
2023-02-02T06:55:50.438Z,723.00
2023-02-02T06:56:49.428Z,739.00
2023-02-02T06:59:50.343Z,783.00
2023-02-02T07:00:49.389Z,842.00
2023-02-02T07:01:49.468Z,855.00
2023-02-02T07:05:49.346Z,962.00
2023-02-02T07:06:49.340Z,986.00
2023-02-02T07:08:59.348Z,1054.00
2023-02-02T07:11:13.390Z,1134.00
2023-02-02T07:11:49.286Z,1153.00
2023-02-02T07:13:49.263Z,1193.00
2023-02-02T07:14:49.253Z,1230.00
2023-02-02T07:15:49.388Z,1263.00
2023-02-02T07:16:49.251Z,1273.00
2023-02-02T07:17:49.228Z,1286.00
2023-02-02T07:19:49.216Z,1333.00
2023-02-02T07:20:49.202Z,1354.00
2023-02-02T07:21:49.208Z,1392.00
2023-02-02T07:22:49.186Z,1402.00
2023-02-02T07:23:49.181Z,1430.00
2023-02-02T07:26:49.249Z,1478.00
2023-02-02T07:27:49.141Z,1487.00
2023-02-02T07:29:49.125Z,1535.00
2023-02-02T07:30:49.271Z,1549.00
2023-02-02T07:31:49.223Z,1561.00
2023-02-02T07:32:48.093Z,1582.00
2023-02-02T07:33:49.089Z,1640.00
2023-02-02T07:34:49.102Z,1655.00
2023-02-02T07:35:49.062Z,1663.00
2023-02-02T07:36:49.054Z,1679.00
2023-02-02T07:37:49.045Z,1700.00
2023-02-02T07:38:49.034Z,1754.00
2023-02-02T07:39:49.046Z,1764.00
2023-02-02T07:40:49.016Z,1776.00
2023-02-02T07:41:49.014Z,1795.00
2023-02-02T07:42:49.008Z,1803.00
2023-02-02T07:45:48.991Z,1850.00
2023-02-02T07:46:49.154Z,1870.00
2023-02-02T07:47:48.960Z,1880.00
2023-02-02T07:48:49.088Z,1890.00
2023-02-02T07:49:48.944Z,1902.00
2023-02-02T07:50:48.954Z,1912.00
2023-02-02T07:51:48.923Z,1920.00
2023-02-02T07:52:48.912Z,1936.00
2023-02-02T07:54:48.943Z,1960.00
2023-02-02T07:56:48.886Z,1980.00
2023-02-02T07:57:48.884Z,1988.00
2023-02-02T07:58:48.860Z,2004.00
2023-02-02T07:59:48.854Z,2025.00
2023-02-02T08:01:48.909Z,2081.00
2023-02-02T08:02:48.912Z,2078.00
2023-02-02T08:03:48.838Z,2085.00
2023-02-02T08:04:48.825Z,2104.00
2023-02-02T08:06:48.817Z,2128.00
2023-02-02T08:08:48.793Z,2167.00
2023-02-02T08:09:48.839Z,2171.00
2023-02-02T08:10:48.771Z,2184.00
2023-02-02T08:11:48.774Z,2195.00
2023-02-02T08:13:48.735Z,2219.00
2023-02-02T08:14:48.753Z,2232.00
2023-02-02T08:16:48.715Z,2268.00
2023-02-02T08:17:48.704Z,2284.00
2023-02-02T08:18:48.691Z,2291.00
2023-02-02T08:19:48.682Z,2296.00
2023-02-02T08:21:48.671Z,2317.00
2023-02-02T08:22:48.699Z,2326.00
2023-02-02T08:23:48.667Z,2336.00
2023-02-02T08:24:48.656Z,2344.00
2023-02-02T08:26:48.661Z,2363.00
2023-02-02T08:27:48.615Z,2383.00
2023-02-02T08:28:48.604Z,2400.00
2023-02-02T08:30:48.654Z,2423.00
2023-02-02T08:31:48.724Z,2430.00
2023-02-02T08:32:48.574Z,2437.00
2023-02-02T08:33:48.566Z,2456.00
2023-02-02T08:35:48.550Z,2474.00
2023-02-02T08:36:48.606Z,2487.00
2023-02-02T08:37:48.749Z,2497.00
2023-02-02T08:38:48.578Z,2503.00
2023-02-02T08:39:48.526Z,2511.00
2023-02-02T08:41:48.506Z,2427.00
2023-02-02T08:42:48.490Z,2370.00
2023-02-02T08:43:48.504Z,2263.00
2023-02-02T08:46:02.510Z,1921.00
2023-02-02T08:46:03.249Z,2012.00
2023-02-02T08:46:48.532Z,1899.00
2023-02-02T08:47:52.030Z,1881.00
2023-02-02T08:48:48.449Z,1847.00
2023-02-02T08:49:48.456Z,1875.00
2023-02-02T08:52:48.410Z,1956.00
2023-02-02T08:53:48.735Z,1968.00
2023-02-02T08:54:48.410Z,1984.00
2023-02-02T08:56:48.423Z,2003.00
2023-02-02T08:58:48.385Z,2056.00
2023-02-02T08:59:48.382Z,2111.00
2023-02-02T09:01:04.354Z,2127.00
2023-02-02T09:02:48.317Z,2169.00
2023-02-02T09:03:48.844Z,2183.00
2023-02-02T09:05:48.298Z,2221.00
2023-02-02T09:08:48.339Z,2253.00
2023-02-02T09:09:48.291Z,2273.00
2023-02-02T09:10:48.275Z,2289.00
2023-02-02T09:11:48.266Z,2299.00
2023-02-02T09:12:48.645Z,2324.00
2023-02-02T09:13:48.261Z,2338.00
2023-02-02T09:18:48.190Z,2429.00
2023-02-02T09:19:48.210Z,2451.00
2023-02-02T09:20:48.199Z,2465.00
2023-02-02T09:22:48.173Z,2510.00
2023-02-02T09:23:48.168Z,2524.00
2023-02-02T09:24:48.155Z,2544.00
2023-02-02T09:25:48.144Z,2559.00
2023-02-02T09:26:48.220Z,2574.00
2023-02-02T09:28:48.093Z,2605.00
2023-02-02T09:29:48.121Z,2636.00
2023-02-02T09:31:48.140Z,2659.00
2023-02-02T09:32:48.058Z,2681.00
2023-02-02T09:33:48.096Z,2702.00
2023-02-02T09:34:48.041Z,2710.00
2023-02-02T09:35:48.131Z,2718.00
2023-02-02T09:37:48.022Z,2745.00
2023-02-02T09:38:48.041Z,2752.00
2023-02-02T09:39:47.996Z,2822.00
2023-02-02T09:41:47.981Z,1781.00
2023-02-02T09:42:48.034Z,1664.00
2023-02-02T09:43:47.999Z,1318.00
2023-02-02T09:44:47.965Z,1193.00
2023-02-02T09:46:47.939Z,1101.00
2023-02-02T09:47:48.139Z,1084.00
2023-02-02T09:48:47.924Z,1098.00
2023-02-02T09:49:47.914Z,1139.00
2023-02-02T09:50:48.158Z,1157.00
2023-02-02T09:51:47.901Z,1188.00
2023-02-02T09:52:48.143Z,1210.00
2023-02-02T09:53:55.105Z,1156.00
2023-02-02T09:54:55.265Z,1151.00
2023-02-02T09:55:48.853Z,1129.00
2023-02-02T09:56:47.859Z,1127.00
2023-02-02T09:57:48.143Z,1112.00
2023-02-02T09:58:47.862Z,1103.00
2023-02-02T09:59:48.820Z,1093.00
2023-02-02T10:00:47.818Z,1082.00
2023-02-02T10:01:47.807Z,1076.00
2023-02-02T10:02:48.141Z,1085.00
2023-02-02T10:04:47.783Z,1142.00
2023-02-02T10:05:47.780Z,1108.00
2023-02-02T10:06:47.764Z,1093.00
2023-02-02T10:07:48.141Z,1079.00
2023-02-02T10:08:47.743Z,1003.00
2023-02-02T10:09:47.742Z,1005.00
2023-02-02T10:10:47.737Z,990.00
2023-02-02T10:11:47.715Z,986.00
2023-02-02T10:12:48.155Z,839.00
2023-02-02T10:13:47.704Z,866.00
2023-02-02T10:14:47.764Z,871.00
2023-02-02T10:15:47.709Z,883.00
2023-02-02T10:16:47.672Z,943.00
2023-02-02T10:17:48.143Z,982.00
2023-02-02T10:20:47.675Z,1091.00
2023-02-02T10:21:47.622Z,1105.00
2023-02-02T10:22:47.620Z,1134.00
2023-02-02T10:23:47.623Z,1187.00
2023-02-02T10:24:47.662Z,1205.00
2023-02-02T10:25:47.635Z,1222.00
2023-02-02T10:26:47.663Z,1235.00
2023-02-02T10:27:47.648Z,1289.00
2023-02-02T10:28:47.562Z,1304.00
2023-02-02T10:29:49.351Z,1318.00
2023-02-02T10:30:47.792Z,1337.00
2023-02-02T10:31:47.687Z,1341.00
2023-02-02T10:32:47.658Z,1383.00
2023-02-02T10:33:47.525Z,1395.00
2023-02-02T10:34:47.518Z,1388.00
2023-02-02T10:35:47.508Z,1392.00
2023-02-02T10:36:47.501Z,1390.00
2023-02-02T10:38:47.486Z,1348.00
2023-02-02T10:39:47.509Z,1341.00
2023-02-02T10:40:47.495Z,1270.00
2023-02-02T10:42:47.531Z,1226.00
2023-02-02T10:43:47.460Z,1169.00
2023-02-02T10:44:47.667Z,1140.00
2023-02-02T10:45:47.434Z,1123.00
2023-02-02T10:46:47.438Z,1102.00
2023-02-02T10:47:47.671Z,1085.00
2023-02-02T10:48:47.435Z,1063.00
2023-02-02T10:49:55.859Z,1062.00
2023-02-02T10:50:47.394Z,1047.00
2023-02-02T10:51:47.401Z,1035.00
2023-02-02T10:52:47.698Z,1018.00
2023-02-02T10:53:47.349Z,1006.00
2023-02-02T10:54:56.395Z,1002.00
2023-02-02T10:55:47.354Z,999.00
2023-02-02T10:56:47.336Z,998.00
2023-02-02T10:58:47.314Z,1002.00
2023-02-02T10:59:47.322Z,999.00
2023-02-02T11:00:47.344Z,993.00
2023-02-02T11:01:47.755Z,989.00
2023-02-02T11:02:47.346Z,985.00
2023-02-02T11:04:47.330Z,980.00
2023-02-02T11:05:47.294Z,980.00
2023-02-02T11:06:47.275Z,975.00
2023-02-02T11:07:47.273Z,970.00
2023-02-02T11:08:47.705Z,973.00
2023-02-02T11:09:47.242Z,973.00
2023-02-02T11:10:47.694Z,972.00
2023-02-02T11:11:47.232Z,971.00
2023-02-02T11:12:47.199Z,970.00
2023-02-02T11:13:47.682Z,968.00
2023-02-02T11:14:47.172Z,969.00
2023-02-02T11:15:47.230Z,969.00
2023-02-02T11:16:47.259Z,975.00
2023-02-02T11:17:47.988Z,972.00
2023-02-02T11:18:47.239Z,969.00
2023-02-02T11:19:47.128Z,965.00
2023-02-02T11:20:47.156Z,961.00
2023-02-02T11:21:47.106Z,960.00
2023-02-02T11:22:47.099Z,958.00
2023-02-02T11:23:48.819Z,956.00
2023-02-02T11:24:47.088Z,956.00
2023-02-02T11:25:47.087Z,955.00
2023-02-02T11:26:47.178Z,960.00
2023-02-02T11:27:47.161Z,960.00
2023-02-02T11:28:47.180Z,962.00
2023-02-02T11:29:47.058Z,1020.00
2023-02-02T11:30:47.035Z,1056.00
2023-02-02T11:31:47.311Z,1068.00
2023-02-02T11:32:47.016Z,1080.00
2023-02-02T11:33:47.186Z,1110.00
2023-02-02T11:34:47.014Z,1139.00
2023-02-02T11:35:47.009Z,1177.00
2023-02-02T11:36:46.984Z,1197.00
2023-02-02T11:37:46.971Z,1215.00
2023-02-02T11:38:47.191Z,1238.00
2023-02-02T11:39:47.198Z,1262.00
2023-02-02T11:40:46.973Z,1284.00
2023-02-02T11:41:46.938Z,1318.00
2023-02-02T11:42:46.933Z,1329.00
2023-02-02T11:43:47.211Z,1348.00
2023-02-02T11:44:46.941Z,1377.00
2023-02-02T11:45:46.919Z,1397.00
2023-02-02T11:46:47.005Z,1281.00
2023-02-02T11:47:46.918Z,1269.00
2023-02-02T11:48:47.199Z,1193.00
2023-02-02T11:49:47.303Z,1179.00
2023-02-02T11:50:46.945Z,1103.00
2023-02-02T11:51:47.895Z,1113.00
2023-02-02T11:52:46.883Z,1098.00
2023-02-02T11:53:46.924Z,1091.00
2023-02-02T11:54:46.834Z,1080.00
2023-02-02T11:55:46.826Z,1075.00
2023-02-02T11:56:46.846Z,1073.00
2023-02-02T11:57:46.822Z,1065.00
2023-02-02T11:58:46.812Z,1001.00
2023-02-02T11:59:47.223Z,963.00
2023-02-02T12:00:46.768Z,952.00
2023-02-02T12:01:46.834Z,944.00
2023-02-02T12:02:46.778Z,941.00
2023-02-02T12:03:46.893Z,932.00
2023-02-02T12:05:47.737Z,934.00
2023-02-02T12:06:46.746Z,937.00
2023-02-02T12:07:46.801Z,937.00
2023-02-02T12:08:46.724Z,932.00
2023-02-02T12:09:46.737Z,922.00
2023-02-02T12:10:46.740Z,915.00
2023-02-02T12:11:46.700Z,902.00
2023-02-02T12:12:46.671Z,901.00
2023-02-02T12:13:46.691Z,898.00
2023-02-02T12:14:46.732Z,889.00
2023-02-02T12:15:46.673Z,885.00
2023-02-02T12:16:46.646Z,885.00
2023-02-02T12:17:46.727Z,892.00
2023-02-02T12:18:46.646Z,898.00
2023-02-02T12:19:46.706Z,904.00
2023-02-02T12:20:46.587Z,900.00
2023-02-02T12:21:46.596Z,894.00
2023-02-02T12:22:46.614Z,861.00
2023-02-02T12:23:46.615Z,859.00
2023-02-02T12:24:46.580Z,867.00
2023-02-02T12:25:46.546Z,864.00
2023-02-02T12:26:46.592Z,850.00
2023-02-02T12:27:46.545Z,824.00
2023-02-02T12:28:46.523Z,810.00
2023-02-02T12:29:46.522Z,799.00
2023-02-02T12:30:46.743Z,789.00
2023-02-02T12:31:46.590Z,773.00
2023-02-02T12:32:46.479Z,746.00
2023-02-02T12:33:46.485Z,748.00
2023-02-02T12:34:46.478Z,744.00
2023-02-02T12:35:46.453Z,723.00
2023-02-02T12:36:46.722Z,718.00
2023-02-02T12:37:46.438Z,713.00
2023-02-02T12:38:46.496Z,705.00
2023-02-02T12:39:46.424Z,675.00
2023-02-02T12:40:47.495Z,667.00
2023-02-02T12:41:46.518Z,662.00
2023-02-02T12:42:46.395Z,662.00
2023-02-02T12:43:46.716Z,663.00
2023-02-02T12:44:46.368Z,662.00
2023-02-02T12:45:46.423Z,661.00
2023-02-02T12:46:46.387Z,662.00
2023-02-02T12:47:46.344Z,657.00
2023-02-02T12:48:46.710Z,654.00
2023-02-02T12:49:46.711Z,654.00
2023-02-02T12:50:46.316Z,654.00
2023-02-02T12:51:46.338Z,654.00
2023-02-02T12:52:46.349Z,653.00
2023-02-02T12:53:46.313Z,657.00
2023-02-02T12:54:53.933Z,681.00
2023-02-02T12:55:46.274Z,719.00
2023-02-02T12:56:46.268Z,716.00
2023-02-02T12:57:46.262Z,728.00
2023-02-02T12:58:46.733Z,749.00
2023-02-02T12:59:46.275Z,762.00
2023-02-02T13:00:46.811Z,773.00
2023-02-02T13:01:46.224Z,827.00
2023-02-02T13:02:46.230Z,827.00
2023-02-02T13:03:46.655Z,834.00
2023-02-02T13:04:46.188Z,885.00
2023-02-02T13:05:46.229Z,891.00
2023-02-02T13:06:46.184Z,888.00
2023-02-02T13:07:46.175Z,979.00
2023-02-02T13:08:46.162Z,1018.00
2023-02-02T13:09:46.147Z,1019.00
2023-02-02T13:10:46.246Z,1049.00
2023-02-02T13:11:46.145Z,1068.00
2023-02-02T13:12:46.222Z,1085.00
2023-02-02T13:13:46.110Z,1099.00
2023-02-02T13:14:46.098Z,1137.00
2023-02-02T13:15:46.226Z,1170.00
2023-02-02T13:16:46.158Z,1224.00
2023-02-02T13:17:46.071Z,1241.00
2023-02-02T13:18:46.062Z,1257.00
2023-02-02T13:19:46.063Z,1286.00
2023-02-02T13:20:46.042Z,1319.00
2023-02-02T13:21:46.041Z,1342.00
2023-02-02T13:22:46.031Z,1356.00
2023-02-02T13:23:46.029Z,1370.00
2023-02-02T13:24:46.011Z,1399.00
2023-02-02T13:25:46.004Z,1422.00
2023-02-02T13:26:46.194Z,1441.00
2023-02-02T13:27:45.981Z,1477.00
2023-02-02T13:28:45.975Z,1493.00
2023-02-02T13:29:47.949Z,1511.00
2023-02-02T13:30:46.029Z,1549.00
2023-02-02T13:31:46.080Z,1572.00
2023-02-02T13:32:45.949Z,1588.00
2023-02-02T13:33:45.925Z,1615.00
2023-02-02T13:34:45.925Z,1633.00
2023-02-02T13:35:45.910Z,1646.00
2023-02-02T13:36:46.235Z,1674.00
2023-02-02T13:37:45.903Z,1705.00
2023-02-02T13:38:45.895Z,1717.00
2023-02-02T13:39:45.885Z,1732.00
2023-02-02T13:40:45.873Z,1756.00
2023-02-02T13:41:45.935Z,1792.00
2023-02-02T13:42:46.259Z,1805.00
2023-02-02T13:43:45.849Z,1819.00
2023-02-02T13:44:45.844Z,1829.00
2023-02-02T13:45:45.920Z,1850.00
2023-02-02T13:46:46.267Z,1895.00
2023-02-02T13:47:45.807Z,1902.00
2023-02-02T13:48:45.800Z,1928.00
2023-02-02T13:49:45.792Z,1941.00
2023-02-02T13:50:45.797Z,1974.00
2023-02-02T13:51:46.743Z,1990.00
2023-02-02T13:52:45.765Z,1982.00
2023-02-02T13:53:45.755Z,1801.00
2023-02-02T13:54:45.938Z,1551.00
2023-02-02T13:55:45.748Z,1503.00
2023-02-02T13:56:45.784Z,1467.00
2023-02-02T13:57:45.718Z,1365.00
2023-02-02T13:58:45.766Z,1334.00
2023-02-02T13:59:45.726Z,1338.00
2023-02-02T14:00:45.704Z,1282.00
2023-02-02T14:01:45.829Z,1272.00
2023-02-02T14:02:45.728Z,1272.00
2023-02-02T14:03:45.664Z,1242.00
2023-02-02T14:04:45.670Z,1113.00
2023-02-02T14:05:45.653Z,1006.00
2023-02-02T14:06:45.769Z,945.00
2023-02-02T14:07:45.659Z,927.00
2023-02-02T14:08:45.631Z,864.00
2023-02-02T14:09:45.646Z,820.00
2023-02-02T14:10:45.625Z,823.00
2023-02-02T14:11:45.778Z,861.00
2023-02-02T14:12:45.593Z,943.00
2023-02-02T14:13:45.593Z,980.00
2023-02-02T14:14:45.624Z,994.00
2023-02-02T14:15:45.698Z,1078.00
2023-02-02T14:16:45.574Z,1086.00
2023-02-02T14:17:45.583Z,1130.00
2023-02-02T14:18:45.549Z,1160.00
2023-02-02T14:19:45.547Z,1189.00
2023-02-02T14:20:45.571Z,1215.00
2023-02-02T14:21:45.503Z,1273.00
2023-02-02T14:22:45.620Z,1294.00
2023-02-02T14:24:45.527Z,1336.00
2023-02-02T14:25:45.494Z,1373.00
2023-02-02T14:26:45.785Z,1398.00
2023-02-02T14:27:45.462Z,1426.00
2023-02-02T14:28:45.482Z,1459.00
2023-02-02T14:29:46.890Z,1482.00
2023-02-02T14:35:45.523Z,1646.00
2023-02-02T14:37:46.070Z,1712.00
2023-02-02T14:39:46.489Z,1741.00
2023-02-02T14:42:46.437Z,1799.00
2023-02-02T14:44:46.398Z,1866.00
2023-02-02T14:52:45.332Z,1622.00
2023-02-02T15:08:45.192Z,1097.00
2023-02-02T15:29:44.997Z,868.00
2023-02-02T15:30:45.073Z,861.00
2023-02-02T15:31:45.210Z,850.00
2023-02-02T15:32:44.983Z,773.00